map of MMX home
MMX - Airport
Location
City:  Malmö, Skåne län, Sweden
Name:Malmö-Sturup Airport
ICAO:ESMS
IATA:MMX

Details
Type:Airport (Aerodrome, Airfield)
Use:Public/Civil, International (customs port of entry)
Latitude:55°31'49"N (55.530193)
Longitude:13°22'18"E (13.371639)
Datum:WGS 1984
Elevation:236 ft (72 m)
Variation:3.96°E (WMM2015 magnetic declination)
0.15° annual change
Runways:2
Longest:9186 × 148 ft (2800 × 45 m), paved

Time
Time Zone:UTC+1 (DST+2)
Local Time:

Weather
METAR:ESMS 121520Z 32015KT 9999 BKN025 01/M02 Q0996 R17/290295
TAF:ESMS 121052Z 1212/1312 31012KT 4000 -SNRADZ BKN004
BECMG 1212/1214 9999 NSW BKN010
BECMG 1214/1216 SCT020
BECMG 1219/1222 22012KT
TEMPO 1303/1312 22018G28KT BKN012

Related Locations
Nearby:
Farthest:CHT: 11512 mi / 18526 km
Waitangi [Tuuta], CIT, NZ

Find:

   beyond  
but within

Other Information
Maps:
NOTAMs:
Links:
Sources:

  
flag of Sweden   

Sectional Chart

Flight Planning
at skyvector.com

Satellite Image

Google Maps Satellite view

 

Copyright © 2004-2017 Karl L. Swartz. All rights reserved.
The Great Circle Mapper name and logo are trademarks of the Great Circle Mapper.
All other trademarks mentioned herein belong to their respective owners.
Please see credits for attibutions and further copyright information.

  Follow gcmap on Facebook Follow gcmap on Twitter Follow gcmap on Google+ GCmap on LinkedIn

hCard Microformat

Geo Microformat